createdAt,value
2019-05-25T00:00:22.267Z,98632.41
2019-05-25T00:02:54.791Z,98642.65
2019-05-25T00:05:27.645Z,98640.73
2019-05-25T00:08:00.323Z,98642.53
2019-05-25T00:10:32.862Z,98610.66
2019-05-25T00:13:05.339Z,98610.66
2019-05-25T00:15:37.808Z,98636.59
2019-05-25T00:18:10.435Z,98632.90
2019-05-25T00:20:43.010Z,98633.94
2019-05-25T00:23:17.311Z,98629.65
2019-05-25T00:25:50.276Z,98633.34
2019-05-25T00:28:22.772Z,98627.86
2019-05-25T00:30:55.297Z,98627.86
2019-05-25T00:33:27.877Z,98629.45
2019-05-25T00:36:00.471Z,98629.45
2019-05-25T00:38:33.374Z,98633.91
2019-05-25T00:41:05.577Z,98639.66
2019-05-25T00:43:44.283Z,98634.42
2019-05-25T00:46:16.248Z,98640.03
2019-05-25T00:48:49.654Z,98640.03
2019-05-25T00:51:22.366Z,98649.80
2019-05-25T00:53:54.823Z,98638.73
2019-05-25T00:56:29.164Z,98638.73
2019-05-25T00:59:01.626Z,98646.14
2019-05-25T01:01:34.286Z,98639.09
2019-05-25T01:04:06.890Z,98639.88
2019-05-25T01:06:39.785Z,98639.88
2019-05-25T01:09:12.320Z,98633.11
2019-05-25T01:11:46.256Z,98637.31
2019-05-25T01:14:18.643Z,98630.78
2019-05-25T01:16:51.370Z,98631.55
2019-05-25T01:19:24.054Z,98629.50
2019-05-25T01:21:56.708Z,98635.58
2019-05-25T01:24:43.420Z,98633.73
2019-05-25T01:27:03.606Z,98639.91
2019-05-25T01:29:36.325Z,98639.16
2019-05-25T01:32:09.309Z,98638.34
2019-05-25T01:34:41.759Z,98643.66
2019-05-25T01:37:17.297Z,98643.66
2019-05-25T01:39:49.701Z,98646.69
2019-05-25T01:42:22.582Z,98646.69
2019-05-25T01:44:55.298Z,98650.56
2019-05-25T01:47:28.367Z,98658.85
2019-05-25T01:50:00.549Z,98650.83
2019-05-25T01:52:34.298Z,98643.92
2019-05-25T01:55:09.293Z,98647.85
2019-05-25T01:57:41.835Z,98645.20
2019-05-25T02:00:14.220Z,98645.20
2019-05-25T02:02:46.879Z,98644.98
2019-05-25T02:05:19.779Z,98644.98
2019-05-25T02:07:52.818Z,98645.93
2019-05-25T02:10:26.864Z,98645.74
2019-05-25T02:12:59.430Z,98648.30
2019-05-25T02:15:32.283Z,98650.38
2019-05-25T02:18:04.786Z,98650.84
2019-05-25T02:20:38.870Z,98650.84
2019-05-25T02:23:11.509Z,98650.09
2019-05-25T02:25:43.840Z,98652.17
2019-05-25T02:28:17.195Z,98652.23
2019-05-25T02:30:50.766Z,98648.81
2019-05-25T02:33:23.331Z,98651.47
2019-05-25T02:35:55.715Z,98642.93
2019-05-25T02:38:28.294Z,98642.93
2019-05-25T02:41:01.345Z,98642.12
2019-05-25T02:43:33.807Z,98627.36
2019-05-25T02:46:06.601Z,98627.36
2019-05-25T02:48:39.282Z,98645.70
2019-05-25T02:51:14.974Z,98623.38
2019-05-25T02:53:47.647Z,98623.38
2019-05-25T02:56:20.289Z,98638.25
2019-05-25T02:58:53.329Z,98638.19
2019-05-25T03:01:26.129Z,98644.78
2019-05-25T03:03:58.661Z,98644.78
2019-05-25T03:06:31.565Z,98650.03
2019-05-25T03:09:07.300Z,98647.95
2019-05-25T03:11:41.797Z,98650.80
2019-05-25T03:14:19.300Z,98650.80
2019-05-25T03:16:51.817Z,98648.70
2019-05-25T03:19:24.389Z,98648.70
2019-05-25T03:21:56.726Z,98629.92
2019-05-25T03:24:29.341Z,98629.92
2019-05-25T03:27:02.294Z,98654.38
2019-05-25T03:29:35.298Z,98647.13
2019-05-25T03:32:08.027Z,98647.13
2019-05-25T03:34:42.410Z,98657.08
2019-05-25T03:37:15.362Z,98659.73
2019-05-25T03:39:48.794Z,98666.33
2019-05-25T03:42:21.495Z,98666.33
2019-05-25T03:44:55.429Z,98672.83
2019-05-25T03:47:28.291Z,98665.72
2019-05-25T03:50:01.826Z,98643.56
2019-05-25T03:52:34.369Z,98643.56
2019-05-25T03:55:11.282Z,98676.65
2019-05-25T03:57:43.883Z,98678.84
2019-05-25T04:00:21.793Z,98678.84
2019-05-25T04:02:54.302Z,98683.91
2019-05-25T04:05:26.733Z,98659.59
2019-05-25T04:07:59.293Z,98659.59
2019-05-25T04:10:33.521Z,98682.98
2019-05-25T04:13:06.391Z,98687.16
2019-05-25T04:15:41.867Z,98683.98
2019-05-25T04:18:17.537Z,98690.06
2019-05-25T04:20:51.830Z,98688.53
2019-05-25T04:23:24.285Z,98691.13
2019-05-25T04:25:56.867Z,98693.81
2019-05-25T04:28:29.333Z,98693.81
2019-05-25T04:31:03.294Z,98694.72
2019-05-25T04:33:35.630Z,98667.13
2019-05-25T04:36:39.847Z,98667.13
2019-05-25T04:39:12.298Z,98697.81
2019-05-25T04:41:44.605Z,98702.50
2019-05-25T04:44:18.295Z,98702.50
2019-05-25T04:46:52.395Z,98706.36
2019-05-25T04:49:24.734Z,98704.95
2019-05-25T04:51:57.339Z,98704.95
2019-05-25T04:57:01.347Z,98702.12
2019-05-25T04:59:33.732Z,98705.73
2019-05-25T05:02:06.432Z,98700.67
2019-05-25T05:04:40.371Z,98704.79
2019-05-25T05:07:12.685Z,98707.12
2019-05-25T05:09:45.280Z,98707.12
2019-05-25T05:12:18.405Z,98717.25
2019-05-25T05:14:50.803Z,98707.95
2019-05-25T05:17:23.286Z,98712.80
2019-05-25T05:19:55.604Z,98708.50
2019-05-25T05:22:28.283Z,98708.50
2019-05-25T05:25:00.657Z,98718.11
2019-05-25T05:27:33.309Z,98718.11
2019-05-25T05:30:08.970Z,98720.06
2019-05-25T05:32:41.299Z,98715.80
2019-05-25T05:35:14.516Z,98724.12
2019-05-25T05:37:49.707Z,98724.12
2019-05-25T05:40:22.317Z,98723.28
2019-05-25T05:42:59.271Z,98722.83
2019-05-25T05:45:35.294Z,98723.87
2019-05-25T05:48:10.289Z,98730.08
2019-05-25T05:50:43.298Z,98730.58
2019-05-25T05:53:15.871Z,98734.12
2019-05-25T05:55:48.661Z,98725.36
2019-05-25T05:58:21.294Z,98725.36
2019-05-25T06:00:53.598Z,98731.66
2019-05-25T06:03:26.018Z,98731.66
2019-05-25T06:05:58.485Z,98732.80
2019-05-25T06:08:30.971Z,98737.28
2019-05-25T06:11:03.362Z,98734.75
2019-05-25T06:13:35.734Z,98706.80
2019-05-25T06:16:08.281Z,98706.80
2019-05-25T06:18:40.727Z,98725.20
2019-05-25T06:21:13.334Z,98725.20
2019-05-25T06:23:45.690Z,98743.17
2019-05-25T06:26:19.048Z,98714.63
2019-05-25T06:28:51.458Z,98714.63
2019-05-25T06:31:23.795Z,98740.12
2019-05-25T06:33:56.287Z,98735.55
2019-05-25T06:36:28.754Z,98743.25
2019-05-25T06:39:01.393Z,98743.25
2019-05-25T06:41:34.290Z,98746.83
2019-05-25T06:44:07.593Z,98743.48
2019-05-25T06:46:39.909Z,98743.48
2019-05-25T06:49:12.362Z,98743.53
2019-05-25T06:51:45.436Z,98744.11
2019-05-25T06:54:21.291Z,98741.50
2019-05-25T06:56:52.897Z,98722.63
2019-05-25T06:59:25.306Z,98722.63
2019-05-25T07:01:56.934Z,98739.95
2019-05-25T07:04:29.307Z,98739.95
2019-05-25T07:07:01.755Z,98747.55
2019-05-25T07:09:34.500Z,98747.55
2019-05-25T07:12:07.338Z,98740.03
2019-05-25T07:14:39.856Z,98743.82
2019-05-25T07:17:12.344Z,98742.73
2019-05-25T07:19:44.756Z,98743.11
2019-05-25T07:22:17.353Z,98743.11
2019-05-25T07:24:49.673Z,98708.62
2019-05-25T07:27:22.294Z,98708.62
2019-05-25T07:29:54.639Z,98747.53
2019-05-25T07:32:27.280Z,98739.48
2019-05-25T07:34:59.584Z,98714.81
2019-05-25T07:37:32.291Z,98714.81
2019-05-25T07:40:07.292Z,98743.20
2019-05-25T07:42:39.783Z,98746.41
2019-05-25T07:45:12.799Z,98746.41
2019-05-25T07:47:45.299Z,98741.50
2019-05-25T07:50:19.768Z,98741.44
2019-05-25T07:52:52.292Z,98738.52
2019-05-25T07:55:24.757Z,98739.09
2019-05-25T07:57:57.292Z,98739.09
2019-05-25T08:00:29.977Z,98732.44
2019-05-25T08:03:02.358Z,98732.44
2019-05-25T08:05:34.764Z,98729.17
2019-05-25T08:08:08.703Z,98729.17
2019-05-25T08:10:41.289Z,98744.87
2019-05-25T08:13:13.272Z,98739.61
2019-05-25T08:15:45.893Z,98745.67
2019-05-25T08:18:19.465Z,98744.37
2019-05-25T08:20:52.810Z,98745.86
2019-05-25T08:23:25.314Z,98739.14
2019-05-25T08:25:57.665Z,98734.88
2019-05-25T08:28:33.158Z,98734.88
2019-05-25T08:31:04.557Z,98737.02
2019-05-25T08:33:37.280Z,98740.11
2019-05-25T08:36:09.630Z,98724.41
2019-05-25T08:38:42.055Z,98724.41
2019-05-25T08:41:14.462Z,98732.96
2019-05-25T08:43:46.802Z,98730.84
2019-05-25T08:46:19.252Z,98736.46
2019-05-25T08:48:51.596Z,98724.75
2019-05-25T08:51:24.249Z,98734.92
2019-05-25T08:53:56.833Z,98720.13
2019-05-25T08:56:29.567Z,98720.13
2019-05-25T08:59:02.064Z,98730.81
2019-05-25T09:01:34.678Z,98727.84
2019-05-25T09:04:07.296Z,98730.47
2019-05-25T09:06:39.820Z,98732.19
2019-05-25T09:09:12.311Z,98734.03
2019-05-25T09:11:44.362Z,98727.02
2019-05-25T09:14:16.761Z,98734.42
2019-05-25T09:16:50.411Z,98734.42
2019-05-25T09:19:23.041Z,98727.48
2019-05-25T09:22:02.640Z,98727.48
2019-05-25T09:24:29.683Z,98740.62
2019-05-25T09:27:02.295Z,98735.42
2019-05-25T09:29:35.034Z,98737.71
2019-05-25T09:32:07.759Z,98730.55
2019-05-25T09:34:43.324Z,98724.33
2019-05-25T09:37:16.297Z,98705.81
2019-05-25T09:39:50.849Z,98705.81
2019-05-25T09:42:52.445Z,98719.72
2019-05-25T09:45:25.038Z,98730.39
2019-05-25T09:47:59.298Z,98730.39
2019-05-25T09:50:31.689Z,98735.41
2019-05-25T09:53:04.298Z,98735.41
2019-05-25T09:55:36.678Z,98723.47
2019-05-25T09:58:09.298Z,98723.47
2019-05-25T10:00:41.869Z,98695.48
2019-05-25T10:03:14.444Z,98695.48
2019-05-25T10:05:46.836Z,98722.94
2019-05-25T10:08:20.378Z,98722.79
2019-05-25T10:10:52.781Z,98694.12
2019-05-25T10:13:25.289Z,98694.12
2019-05-25T10:15:58.983Z,98722.05
2019-05-25T10:18:31.457Z,98715.34
2019-05-25T10:21:03.910Z,98721.52
2019-05-25T10:23:36.731Z,98721.19
2019-05-25T10:26:09.298Z,98727.27
2019-05-25T10:28:41.612Z,98739.91
2019-05-25T10:31:14.010Z,98739.91
2019-05-25T10:33:46.665Z,98738.92
2019-05-25T10:39:24.011Z,98748.73
2019-05-25T10:41:56.491Z,98757.52
2019-05-25T10:44:30.567Z,98760.11
2019-05-25T10:47:03.286Z,98756.83
2019-05-25T10:49:38.260Z,98752.59
2019-05-25T10:52:10.537Z,98750.23
2019-05-25T10:54:43.317Z,98754.89
2019-05-25T10:57:15.851Z,98764.48
2019-05-25T10:59:52.973Z,98764.48
2019-05-25T11:02:22.566Z,98787.28
2019-05-25T11:04:55.299Z,98803.03
2019-05-25T11:07:27.861Z,98766.41
2019-05-25T11:12:42.294Z,98791.86
2019-05-25T11:15:15.572Z,98790.98
2019-05-25T11:18:41.781Z,98782.42
2019-05-25T11:21:13.363Z,98797.92
2019-05-25T11:23:47.729Z,98790.34
2019-05-25T11:26:20.294Z,98790.34
2019-05-25T11:28:54.310Z,98801.23
2019-05-25T11:31:27.678Z,98779.73
2019-05-25T11:34:00.533Z,98779.73
2019-05-25T11:36:33.104Z,98762.71
2019-05-25T11:39:07.520Z,98746.30
2019-05-25T11:41:39.823Z,98739.50
2019-05-25T11:44:12.524Z,98744.46
2019-05-25T11:46:45.297Z,98749.15
2019-05-25T11:49:23.128Z,98726.88
2019-05-25T11:52:20.493Z,98726.88
2019-05-25T11:55:12.500Z,98719.52
2019-05-25T12:01:59.810Z,98709.72
2019-05-25T12:04:34.292Z,98708.27
2019-05-25T12:07:07.053Z,98667.44
2019-05-25T12:09:43.314Z,98667.44
2019-05-25T12:12:23.496Z,98703.81
2019-05-25T12:16:00.895Z,98703.81
2019-05-25T12:18:41.279Z,98697.63
2019-05-25T12:21:15.529Z,98696.37
2019-05-25T12:23:49.772Z,98696.37
2019-05-25T12:26:23.415Z,98702.12
2019-05-25T12:28:55.355Z,98697.33
2019-05-25T12:31:31.051Z,98672.17
2019-05-25T12:34:21.698Z,98672.17
2019-05-25T12:36:54.144Z,98689.37
2019-05-25T12:40:31.034Z,98685.34
2019-05-25T12:43:02.599Z,98679.18
2019-05-25T12:45:36.846Z,98681.59
2019-05-25T12:48:09.387Z,98678.39
2019-05-25T12:50:41.698Z,98686.92
2019-05-25T12:53:14.351Z,98683.38
2019-05-25T12:55:46.667Z,98696.64
2019-05-25T12:58:19.338Z,98696.64
2019-05-25T13:00:56.506Z,98688.86
2019-05-25T13:03:29.865Z,98688.92
2019-05-25T13:06:01.596Z,98688.73
2019-05-25T13:08:34.031Z,98695.03
2019-05-25T13:11:09.573Z,98689.75
2019-05-25T13:13:40.701Z,98686.23
2019-05-25T13:16:14.774Z,98686.23
2019-05-25T13:18:49.057Z,98681.66
2019-05-25T13:21:22.303Z,98682.05
2019-05-25T13:23:54.854Z,98674.70
2019-05-25T13:26:27.315Z,98674.70
2019-05-25T13:28:59.367Z,98665.87
2019-05-25T13:31:30.727Z,98659.77
2019-05-25T13:34:03.285Z,98658.09
2019-05-25T13:36:37.658Z,98650.69
2019-05-25T13:39:11.330Z,98653.16
2019-05-25T13:41:43.517Z,98650.13
2019-05-25T13:44:15.871Z,98651.37
2019-05-25T13:46:48.485Z,98656.76
2019-05-25T13:49:22.347Z,98653.24
2019-05-25T13:51:54.982Z,98615.11
2019-05-25T13:54:27.346Z,98615.11
2019-05-25T13:57:00.040Z,98648.90
2019-05-25T13:59:34.431Z,98647.79
2019-05-25T14:02:07.062Z,98647.79
2019-05-25T14:04:39.778Z,98644.59
2019-05-25T14:07:12.688Z,98642.23
2019-05-25T14:09:45.305Z,98634.30
2019-05-25T14:12:17.642Z,98633.67
2019-05-25T14:16:17.882Z,98626.52
2019-05-25T14:18:50.376Z,98632.83
2019-05-25T14:21:22.879Z,98626.73
2019-05-25T14:23:55.434Z,98626.73
2019-05-25T14:26:27.845Z,98658.69
2019-05-25T14:29:00.592Z,98658.25
2019-05-25T14:31:45.101Z,98667.09
2019-05-25T14:34:08.521Z,98631.73
2019-05-25T15:22:38.052Z,99223.75
2019-05-25T15:25:13.012Z,99338.86
2019-05-25T15:27:45.573Z,99357.00
2019-05-25T15:30:19.156Z,99447.64
2019-05-25T15:32:53.887Z,99461.57
2019-05-25T15:35:27.106Z,99461.57
2019-05-25T15:38:00.211Z,99402.03
2019-05-25T15:40:32.962Z,99496.66
2019-05-25T15:43:06.028Z,99496.66
2019-05-25T15:45:38.539Z,99591.20
2019-05-25T15:48:11.695Z,99597.14
2019-05-25T15:50:54.441Z,99570.62
2019-05-25T15:53:27.323Z,99583.58
2019-05-25T15:56:01.553Z,99612.84
2019-05-25T15:58:35.831Z,98871.48
2019-05-25T16:01:08.922Z,98874.81
2019-05-25T16:03:42.192Z,98868.11
2019-05-25T16:06:15.200Z,98863.41
2019-05-25T16:08:48.482Z,98857.67
2019-05-25T16:11:20.181Z,98831.23
2019-05-25T16:13:52.747Z,98827.33
2019-05-25T16:16:29.645Z,98822.57
2019-05-25T16:18:58.668Z,98832.27
2019-05-25T16:21:32.021Z,98838.22
2019-05-25T16:24:08.038Z,98841.31
2019-05-25T16:26:46.157Z,98842.37
2019-05-25T16:29:12.611Z,98845.47
2019-05-25T16:31:45.341Z,98848.59
2019-05-25T16:34:17.233Z,98851.75
2019-05-25T16:40:00.358Z,98860.73
2019-05-25T16:42:32.892Z,98847.08
2019-05-25T16:45:07.313Z,98847.08
2019-05-25T16:47:39.724Z,98863.98
2019-05-25T16:50:14.914Z,98863.98
2019-05-25T16:52:49.699Z,98859.53
2019-05-25T16:55:24.035Z,98864.27
2019-05-25T16:57:56.524Z,98862.33
2019-05-25T17:00:31.301Z,98862.80
2019-05-25T17:03:03.810Z,98859.58
2019-05-25T17:05:36.395Z,98859.58
2019-05-25T17:08:08.054Z,98855.24
2019-05-25T17:10:41.437Z,98855.24
2019-05-25T17:13:14.303Z,98846.58
2019-05-25T17:15:48.513Z,98851.60
2019-05-25T17:18:22.336Z,98851.00
2019-05-25T17:20:59.853Z,98841.31
2019-05-25T17:23:36.370Z,98843.08
2019-05-25T17:26:10.070Z,98837.30
2019-05-25T17:28:43.465Z,98838.09
2019-05-25T17:31:19.346Z,98840.19
2019-05-25T17:33:52.555Z,98834.93
2019-05-25T17:36:25.319Z,98840.30
2019-05-25T17:38:58.010Z,98831.12
2019-05-25T17:41:30.958Z,98831.12
2019-05-25T17:44:03.911Z,98839.68
2019-05-25T17:46:36.665Z,98844.43
2019-05-25T17:49:09.483Z,98841.18
2019-05-25T17:51:42.302Z,98835.45
2019-05-25T17:54:14.861Z,98817.03
2019-05-25T17:56:47.374Z,98817.03
2019-05-25T17:59:21.705Z,98838.47
2019-05-25T18:01:55.357Z,98838.86
2019-05-25T18:04:28.085Z,98822.92
2019-05-25T18:07:00.718Z,98822.92
2019-05-25T18:09:33.303Z,98830.23
2019-05-25T18:12:06.385Z,98818.86
2019-05-25T18:14:39.039Z,98818.86
2019-05-25T18:17:11.715Z,98835.87
2019-05-25T18:19:46.316Z,98838.22
2019-05-25T18:22:18.869Z,98840.63
2019-05-25T18:27:35.732Z,98840.27
2019-05-25T18:30:11.637Z,98843.98
2019-05-25T18:32:44.308Z,98852.76
2019-05-25T18:35:17.067Z,98849.19
2019-05-25T18:37:49.746Z,98849.19
2019-05-25T18:40:22.709Z,98854.88
2019-05-25T18:42:55.301Z,98854.94
2019-05-25T18:45:28.298Z,98838.48
2019-05-25T18:48:00.618Z,98850.09
2019-05-25T18:50:33.299Z,98850.09
2019-05-25T18:53:05.940Z,98858.81
2019-05-25T18:55:37.759Z,98858.81
2019-05-25T18:58:12.977Z,98854.55
2019-05-25T19:00:45.455Z,98854.55
2019-05-25T19:03:18.292Z,98853.11
2019-05-25T19:05:50.726Z,98864.63
2019-05-25T19:11:10.495Z,98860.85
2019-05-25T19:13:43.295Z,98861.72
2019-05-25T19:16:15.661Z,98859.69
2019-05-25T19:18:47.588Z,98856.82
2019-05-25T19:21:19.266Z,98860.47
2019-05-25T19:23:51.765Z,98860.29
2019-05-25T19:26:25.448Z,98860.29
2019-05-25T19:28:58.309Z,98866.45
2019-05-25T19:31:30.818Z,98863.91
2019-05-25T19:34:03.686Z,98863.91
2019-05-25T19:36:36.652Z,98864.17
2019-05-25T19:39:10.677Z,98869.50
2019-05-25T19:41:43.386Z,98880.84
2019-05-25T19:44:16.289Z,98880.16
2019-05-25T19:46:49.018Z,98882.86
2019-05-25T19:49:21.633Z,98882.86
2019-05-25T19:51:55.529Z,98892.52
2019-05-25T19:54:28.567Z,98883.63
2019-05-25T19:57:01.335Z,98884.74
2019-05-25T19:59:33.829Z,98890.85
2019-05-25T20:02:06.808Z,98890.85
2019-05-25T20:04:40.970Z,98895.08
2019-05-25T20:07:16.629Z,98896.16
2019-05-25T20:09:49.806Z,98900.09
2019-05-25T20:12:22.340Z,98895.08
2019-05-25T20:14:55.496Z,98888.07
2019-05-25T20:17:28.144Z,98897.02
2019-05-25T20:20:00.819Z,98902.98
2019-05-25T20:22:33.475Z,98908.45
2019-05-25T20:25:10.056Z,98904.52
2019-05-25T20:27:42.582Z,98901.81
2019-05-25T20:30:15.313Z,98905.09
2019-05-25T20:32:47.827Z,98893.46
2019-05-25T20:35:32.250Z,98893.46
2019-05-25T20:37:55.628Z,98903.70
2019-05-25T20:40:28.250Z,98916.48
2019-05-25T20:43:00.717Z,98909.77
2019-05-25T20:47:43.642Z,98917.52
2019-05-25T20:50:18.313Z,98929.52
2019-05-25T20:52:50.868Z,98928.24
2019-05-25T20:55:23.444Z,98921.99
2019-05-25T20:57:56.302Z,98925.30
2019-05-25T21:00:29.746Z,98923.53
2019-05-25T21:03:06.367Z,98923.53
2019-05-25T21:05:49.605Z,98924.95
2019-05-25T21:08:12.845Z,98924.95
2019-05-25T21:10:48.484Z,98933.56
2019-05-25T21:13:22.316Z,98934.31
2019-05-25T21:15:55.882Z,98928.73
2019-05-25T21:18:28.359Z,98927.84
2019-05-25T21:21:00.917Z,98927.47
2019-05-25T21:23:34.861Z,98930.20
2019-05-25T21:26:07.662Z,98929.61
2019-05-25T21:28:40.497Z,98930.63
2019-05-25T21:31:13.330Z,98935.64
2019-05-25T21:33:45.294Z,98920.67
2019-05-25T21:36:19.770Z,98920.67
2019-05-25T21:38:51.866Z,98939.12
2019-05-25T21:41:26.315Z,98944.41
2019-05-25T21:43:58.901Z,98946.02
2019-05-25T21:48:23.709Z,98938.08
2019-05-25T21:50:56.538Z,98944.19
2019-05-25T21:53:29.264Z,98946.30
2019-05-25T21:56:01.321Z,98955.50
2019-05-25T21:58:36.881Z,98950.56
2019-05-25T22:01:10.311Z,98950.56
2019-05-25T22:03:42.666Z,98950.70
2019-05-25T22:06:23.876Z,98950.70
2019-05-25T22:08:49.586Z,98952.45
2019-05-25T22:11:24.856Z,98949.61
2019-05-25T22:13:57.552Z,98948.48
2019-05-25T22:16:34.167Z,98948.78
2019-05-25T22:19:06.702Z,98957.56
2019-05-25T22:21:39.283Z,98958.22
2019-05-25T22:24:20.293Z,98939.35
2019-05-25T22:26:54.703Z,98961.02
2019-05-25T22:29:28.291Z,98961.02
2019-05-25T22:32:00.975Z,98956.51
2019-05-25T22:34:36.343Z,98956.51
2019-05-25T22:37:11.452Z,98957.28
2019-05-25T22:39:57.586Z,98957.28
2019-05-25T22:42:58.826Z,98969.83
2019-05-25T22:45:58.901Z,98962.89
2019-05-25T22:48:34.672Z,98967.89
2019-05-25T22:51:08.989Z,98962.85
2019-05-25T22:53:41.878Z,98965.95
2019-05-25T22:56:17.338Z,98964.87
2019-05-25T22:58:57.653Z,98956.87
2019-05-25T23:01:32.126Z,98965.22
2019-05-25T23:04:08.525Z,98966.70
2019-05-25T23:06:57.156Z,98955.52
2019-05-25T23:09:25.700Z,98957.17
2019-05-25T23:11:57.301Z,98958.62
2019-05-25T23:14:29.824Z,98944.30
2019-05-25T23:17:03.014Z,98944.30
2019-05-25T23:19:35.867Z,98956.59
2019-05-25T23:22:08.507Z,98953.86
2019-05-25T23:24:42.523Z,98954.65
2019-05-25T23:27:21.420Z,98961.68
2019-05-25T23:30:03.298Z,98959.90
2019-05-25T23:32:36.050Z,98952.88
2019-05-25T23:35:19.299Z,98952.88
2019-05-25T23:37:51.685Z,98950.75
2019-05-25T23:40:26.291Z,98950.75
2019-05-25T23:43:00.773Z,98955.36
2019-05-25T23:45:34.355Z,98955.36
2019-05-25T23:48:08.587Z,98948.33
2019-05-25T23:50:40.878Z,98948.34
2019-05-25T23:53:13.356Z,98950.20
2019-05-25T23:55:48.410Z,98949.40
2019-05-25T23:58:22.381Z,98949.40
